createdAt,value
2019-02-25T00:01:07.411Z,37.42
2019-02-25T00:02:33.114Z,36.45
2019-02-25T00:03:39.006Z,34.60
2019-02-25T00:04:45.397Z,35.55
2019-02-25T00:05:51.863Z,36.05
2019-02-25T00:06:57.861Z,32.53
2019-02-25T00:08:05.046Z,37.60
2019-02-25T00:09:10.759Z,35.30
2019-02-25T00:10:17.756Z,52.85
2019-02-25T00:11:24.032Z,41.20
2019-02-25T00:12:30.320Z,42.62
2019-02-25T00:13:36.602Z,43.98
2019-02-25T00:14:43.203Z,49.93
2019-02-25T00:15:49.097Z,40.70
2019-02-25T00:16:55.922Z,33.35
2019-02-25T00:18:02.808Z,45.90
2019-02-25T00:19:08.572Z,38.38
2019-02-25T00:20:15.878Z,38.05
2019-02-25T00:21:23.309Z,38.48
2019-02-25T00:22:29.593Z,35.48
2019-02-25T00:23:36.535Z,36.20
2019-02-25T00:24:42.915Z,36.98
2019-02-25T00:25:49.054Z,33.80
2019-02-25T00:26:55.024Z,30.75
2019-02-25T00:28:02.688Z,32.88
2019-02-25T00:29:09.819Z,33.05
2019-02-25T00:30:17.709Z,34.80
2019-02-25T00:31:23.604Z,33.30
2019-02-25T00:32:30.342Z,35.95
2019-02-25T00:33:37.019Z,30.48
2019-02-25T00:34:42.988Z,31.27
2019-02-25T00:35:49.688Z,37.05
2019-02-25T00:36:56.314Z,38.75
2019-02-25T00:38:02.857Z,34.92
2019-02-25T00:39:09.875Z,32.38
2019-02-25T00:40:16.820Z,30.70
2019-02-25T00:41:23.430Z,32.50
2019-02-25T00:42:30.360Z,32.85
2019-02-25T00:43:37.105Z,32.70
2019-02-25T00:44:43.141Z,33.67
2019-02-25T00:45:50.640Z,33.63
2019-02-25T00:46:57.976Z,33.08
2019-02-25T00:48:04.187Z,34.75
2019-02-25T00:49:11.550Z,32.33
2019-02-25T00:50:21.769Z,33.35
2019-02-25T00:51:27.622Z,32.55
2019-02-25T00:52:34.467Z,35.45
2019-02-25T00:53:40.814Z,29.48
2019-02-25T00:54:47.418Z,31.05
2019-02-25T00:55:54.620Z,27.87
2019-02-25T00:57:01.221Z,30.82
2019-02-25T00:58:08.100Z,34.00
2019-02-25T00:59:14.770Z,37.50
2019-02-25T01:00:24.743Z,34.03
2019-02-25T01:01:31.070Z,30.80
2019-02-25T01:02:37.557Z,33.63
2019-02-25T01:03:43.468Z,31.48
2019-02-25T01:04:49.905Z,33.85
2019-02-25T01:05:56.795Z,35.40
2019-02-25T01:07:03.529Z,39.00
2019-02-25T01:08:10.462Z,49.80
2019-02-25T01:09:16.749Z,60.12
2019-02-25T01:10:23.160Z,55.43
2019-02-25T01:11:28.880Z,54.88
2019-02-25T01:12:35.771Z,57.33
2019-02-25T01:13:41.989Z,48.55
2019-02-25T01:14:49.022Z,47.83
2019-02-25T01:15:56.338Z,38.65
2019-02-25T01:17:02.175Z,38.85
2019-02-25T01:18:08.233Z,34.83
2019-02-25T01:19:15.451Z,39.45
2019-02-25T01:20:21.347Z,36.65
2019-02-25T01:21:28.197Z,39.80
2019-02-25T01:22:35.028Z,38.75
2019-02-25T01:23:41.667Z,36.13
2019-02-25T01:24:48.848Z,34.23
2019-02-25T01:25:54.874Z,36.42
2019-02-25T01:27:01.500Z,39.98
2019-02-25T01:28:08.356Z,35.88
2019-02-25T01:29:14.038Z,39.05
2019-02-25T01:30:21.837Z,36.85
2019-02-25T01:31:28.946Z,33.70
2019-02-25T01:32:34.656Z,37.17
2019-02-25T01:33:40.907Z,34.53
2019-02-25T01:34:47.263Z,42.53
2019-02-25T01:35:53.502Z,39.92
2019-02-25T01:37:01.096Z,45.40
2019-02-25T01:38:07.349Z,53.60
2019-02-25T01:39:14.923Z,57.45
2019-02-25T01:40:21.769Z,49.73
2019-02-25T01:41:28.629Z,48.80
2019-02-25T01:42:36.129Z,46.53
2019-02-25T01:43:42.579Z,43.17
2019-02-25T01:44:48.535Z,40.20
2019-02-25T01:45:55.311Z,37.23
2019-02-25T01:47:03.175Z,35.43
2019-02-25T01:48:09.245Z,34.23
2019-02-25T01:49:15.797Z,36.33
2019-02-25T01:50:22.749Z,34.75
2019-02-25T01:51:28.722Z,37.40
2019-02-25T01:52:35.074Z,34.80
2019-02-25T01:53:40.957Z,35.55
2019-02-25T01:54:47.139Z,45.75
2019-02-25T01:55:53.914Z,62.45
2019-02-25T01:57:00.295Z,61.30
2019-02-25T01:58:06.209Z,57.13
2019-02-25T01:59:13.526Z,58.68
2019-02-25T02:00:20.288Z,54.85
2019-02-25T02:01:27.389Z,49.03
2019-02-25T02:02:35.161Z,45.25
2019-02-25T02:03:41.001Z,47.93
2019-02-25T02:04:48.595Z,42.95
2019-02-25T02:05:55.423Z,42.25
2019-02-25T02:07:01.382Z,35.78
2019-02-25T02:08:08.342Z,34.80
2019-02-25T02:09:16.372Z,38.53
2019-02-25T02:10:22.393Z,41.08
2019-02-25T02:11:28.951Z,35.25
2019-02-25T02:12:36.085Z,34.75
2019-02-25T02:13:41.957Z,32.73
2019-02-25T02:14:48.376Z,33.60
2019-02-25T02:15:55.489Z,35.63
2019-02-25T02:17:01.536Z,37.35
2019-02-25T02:18:08.908Z,35.10
2019-02-25T02:19:15.990Z,33.05
2019-02-25T02:20:22.352Z,31.85
2019-02-25T02:21:30.228Z,36.05
2019-02-25T02:22:36.181Z,39.65
2019-02-25T02:23:43.023Z,39.78
2019-02-25T02:24:50.323Z,38.20
2019-02-25T02:25:56.734Z,35.43
2019-02-25T02:27:03.571Z,44.35
2019-02-25T02:28:10.731Z,43.00
2019-02-25T02:29:16.465Z,46.10
2019-02-25T02:30:24.209Z,62.48
2019-02-25T02:31:30.668Z,58.90
2019-02-25T02:32:37.696Z,47.95
2019-02-25T02:33:46.558Z,43.00
2019-02-25T02:34:52.973Z,41.48
2019-02-25T02:35:59.466Z,39.33
2019-02-25T02:37:05.663Z,36.35
2019-02-25T02:38:11.528Z,37.42
2019-02-25T02:39:17.946Z,38.20
2019-02-25T02:40:25.139Z,34.43
2019-02-25T02:41:32.398Z,35.78
2019-02-25T02:42:39.383Z,35.80
2019-02-25T02:43:45.546Z,34.90
2019-02-25T02:44:55.015Z,35.90
2019-02-25T02:46:09.558Z,36.10
2019-02-25T02:47:39.576Z,41.53
2019-02-25T02:48:56.700Z,41.63
2019-02-25T02:50:06.687Z,39.40
2019-02-25T02:51:13.109Z,47.20
2019-02-25T02:52:19.489Z,46.25
2019-02-25T02:53:26.618Z,36.45
2019-02-25T02:54:33.141Z,43.75
2019-02-25T02:55:39.568Z,39.03
2019-02-25T02:56:45.619Z,38.60
2019-02-25T02:57:52.298Z,36.95
2019-02-25T02:58:59.443Z,40.65
2019-02-25T03:00:09.924Z,39.58
2019-02-25T03:01:16.803Z,43.10
2019-02-25T03:02:23.665Z,35.83
2019-02-25T03:03:29.707Z,38.35
2019-02-25T03:04:38.515Z,36.75
2019-02-25T03:05:46.462Z,40.83
2019-02-25T03:06:52.451Z,39.38
2019-02-25T03:07:58.948Z,35.35
2019-02-25T03:09:07.407Z,36.25
2019-02-25T03:10:20.007Z,35.92
2019-02-25T03:11:27.387Z,40.63
2019-02-25T03:12:33.549Z,40.15
2019-02-25T03:13:40.708Z,35.73
2019-02-25T03:14:47.294Z,32.20
2019-02-25T03:15:53.700Z,34.88
2019-02-25T03:17:00.325Z,38.92
2019-02-25T03:18:08.134Z,35.05
2019-02-25T03:19:14.555Z,34.88
2019-02-25T03:20:21.584Z,35.48
2019-02-25T03:21:28.366Z,39.70
2019-02-25T03:22:34.112Z,38.78
2019-02-25T03:23:40.775Z,33.78
2019-02-25T03:24:47.520Z,33.02
2019-02-25T03:25:53.479Z,35.85
2019-02-25T03:27:00.006Z,37.70
2019-02-25T03:28:07.126Z,36.93
2019-02-25T03:29:12.755Z,38.73
2019-02-25T03:30:22.435Z,38.40
2019-02-25T03:31:30.041Z,39.05
2019-02-25T03:32:36.770Z,39.83
2019-02-25T03:33:43.628Z,37.70
2019-02-25T03:34:49.878Z,37.73
2019-02-25T03:35:56.243Z,38.23
2019-02-25T03:37:03.136Z,40.98
2019-02-25T03:38:09.041Z,36.38
2019-02-25T03:39:15.324Z,41.95
2019-02-25T03:40:25.155Z,39.65
2019-02-25T03:41:31.660Z,40.70
2019-02-25T03:42:38.402Z,59.25
2019-02-25T03:43:45.130Z,104.43
2019-02-25T03:44:51.360Z,107.80
2019-02-25T03:45:59.491Z,113.57
2019-02-25T03:47:06.260Z,91.47
2019-02-25T03:48:12.099Z,79.62
2019-02-25T03:49:19.305Z,76.53
2019-02-25T03:50:26.151Z,45.00
2019-02-25T03:51:32.870Z,53.83
2019-02-25T03:52:41.373Z,268.25
2019-02-25T03:53:47.131Z,289.25
2019-02-25T03:54:53.438Z,324.92
2019-02-25T03:55:59.762Z,590.90
2019-02-25T03:57:05.987Z,634.42
2019-02-25T03:58:12.947Z,581.00
2019-02-25T03:59:20.541Z,494.28
2019-02-25T04:00:26.986Z,526.48
2019-02-25T04:01:33.553Z,387.20
2019-02-25T04:02:40.341Z,231.35
2019-02-25T04:03:46.397Z,283.68
2019-02-25T04:04:52.970Z,339.65
2019-02-25T04:05:59.310Z,384.00
2019-02-25T04:07:05.417Z,256.68
2019-02-25T04:08:11.647Z,145.53
2019-02-25T04:09:20.031Z,123.78
2019-02-25T04:10:26.048Z,246.68
2019-02-25T04:11:32.184Z,321.07
2019-02-25T04:12:39.335Z,215.75
2019-02-25T04:13:45.424Z,161.90
2019-02-25T04:14:52.517Z,114.03
2019-02-25T04:16:01.744Z,330.52
2019-02-25T04:17:07.768Z,477.97
2019-02-25T04:18:15.312Z,371.00
2019-02-25T04:19:23.344Z,346.13
2019-02-25T04:20:29.894Z,328.88
2019-02-25T04:21:36.808Z,258.75
2019-02-25T04:22:43.296Z,180.27
2019-02-25T04:23:50.350Z,179.38
2019-02-25T04:24:56.495Z,119.20
2019-02-25T04:26:03.933Z,89.00
2019-02-25T04:27:11.340Z,79.10
2019-02-25T04:28:18.832Z,48.90
2019-02-25T04:29:24.648Z,54.20
2019-02-25T04:30:31.781Z,54.23
2019-02-25T04:31:40.204Z,59.93
2019-02-25T04:32:46.244Z,68.65
2019-02-25T04:33:53.631Z,64.77
2019-02-25T04:35:01.717Z,53.75
2019-02-25T04:36:09.446Z,49.90
2019-02-25T04:37:16.163Z,50.08
2019-02-25T04:38:22.425Z,47.08
2019-02-25T04:39:29.041Z,53.13
2019-02-25T04:40:35.791Z,44.73
2019-02-25T04:41:41.789Z,48.70
2019-02-25T04:42:49.331Z,52.38
2019-02-25T04:43:56.514Z,47.90
2019-02-25T04:45:02.707Z,49.53
2019-02-25T04:46:10.509Z,59.42
2019-02-25T04:47:16.925Z,53.95
2019-02-25T04:48:23.403Z,56.98
2019-02-25T04:49:30.690Z,57.53
2019-02-25T04:50:36.745Z,57.40
2019-02-25T04:51:42.690Z,60.40
2019-02-25T04:52:49.822Z,58.60
2019-02-25T04:53:56.317Z,53.75
2019-02-25T04:55:02.571Z,51.90
2019-02-25T04:56:09.061Z,55.43
2019-02-25T04:57:15.369Z,59.08
2019-02-25T04:58:21.411Z,58.25
2019-02-25T04:59:27.760Z,57.83
2019-02-25T05:00:34.676Z,57.70
2019-02-25T05:01:40.910Z,64.92
2019-02-25T05:02:48.575Z,63.63
2019-02-25T05:03:55.252Z,77.67
2019-02-25T05:05:01.695Z,71.97
2019-02-25T05:06:09.507Z,81.15
2019-02-25T05:07:15.451Z,77.15
2019-02-25T05:08:22.036Z,66.67
2019-02-25T05:09:29.285Z,64.05
2019-02-25T05:10:35.986Z,65.55
2019-02-25T05:11:42.608Z,63.25
2019-02-25T05:12:55.538Z,59.40
2019-02-25T05:14:01.589Z,65.80
2019-02-25T05:15:10.538Z,67.37
2019-02-25T05:16:17.644Z,69.53
2019-02-25T05:17:24.064Z,70.42
2019-02-25T05:18:30.704Z,70.50
2019-02-25T05:19:37.237Z,72.20
2019-02-25T05:20:43.407Z,73.28
2019-02-25T05:21:50.102Z,75.17
2019-02-25T05:22:56.682Z,79.45
2019-02-25T05:24:04.783Z,75.10
2019-02-25T05:25:13.410Z,76.45
2019-02-25T05:26:19.167Z,78.62
2019-02-25T05:27:25.954Z,81.53
2019-02-25T05:28:33.675Z,81.75
2019-02-25T05:29:39.648Z,85.03
2019-02-25T05:30:46.290Z,78.37
2019-02-25T05:31:53.289Z,79.87
2019-02-25T05:32:59.241Z,76.12
2019-02-25T05:34:06.269Z,77.15
2019-02-25T05:35:14.025Z,82.33
2019-02-25T05:36:20.350Z,88.75
2019-02-25T05:37:27.384Z,82.62
2019-02-25T05:38:34.092Z,79.27
2019-02-25T05:39:40.122Z,85.25
2019-02-25T05:40:48.164Z,89.10
2019-02-25T05:41:55.216Z,92.53
2019-02-25T05:43:01.987Z,95.53
2019-02-25T05:44:09.207Z,96.45
2019-02-25T05:45:16.024Z,99.45
2019-02-25T05:46:22.004Z,110.40
2019-02-25T05:47:30.084Z,103.55
2019-02-25T05:48:36.189Z,100.35
2019-02-25T05:49:42.958Z,106.67
2019-02-25T05:50:49.650Z,95.47
2019-02-25T05:51:55.990Z,92.35
2019-02-25T05:53:03.272Z,93.90
2019-02-25T05:54:10.176Z,88.30
2019-02-25T05:55:18.321Z,92.08
2019-02-25T05:56:25.059Z,84.70
2019-02-25T05:57:31.660Z,96.97
2019-02-25T05:58:39.038Z,89.15
2019-02-25T05:59:46.309Z,87.60
2019-02-25T06:00:52.449Z,102.35
2019-02-25T06:01:58.563Z,106.80
2019-02-25T06:03:05.423Z,92.57
2019-02-25T06:04:11.413Z,101.62
2019-02-25T06:05:18.053Z,95.53
2019-02-25T06:06:24.874Z,98.87
2019-02-25T06:07:30.671Z,94.87
2019-02-25T06:08:37.487Z,97.20
2019-02-25T06:09:45.092Z,98.55
2019-02-25T06:10:50.777Z,102.78
2019-02-25T06:11:56.826Z,96.65
2019-02-25T06:13:03.645Z,99.47
2019-02-25T06:14:09.738Z,100.12
2019-02-25T06:15:22.279Z,96.87
2019-02-25T06:16:29.356Z,95.77
2019-02-25T06:17:37.748Z,89.37
2019-02-25T06:18:43.946Z,89.13
2019-02-25T06:19:51.121Z,91.10
2019-02-25T06:20:57.201Z,91.65
2019-02-25T06:22:04.871Z,93.95
2019-02-25T06:23:11.822Z,85.80
2019-02-25T06:24:18.339Z,87.08
2019-02-25T06:25:25.524Z,87.60
2019-02-25T06:26:31.421Z,92.78
2019-02-25T06:27:38.495Z,93.72
2019-02-25T06:28:45.212Z,88.42
2019-02-25T06:29:51.798Z,90.95
2019-02-25T06:30:58.399Z,90.45
2019-02-25T06:32:04.763Z,88.07
2019-02-25T06:33:10.781Z,115.42
2019-02-25T06:34:19.251Z,87.22
2019-02-25T06:35:26.391Z,83.35
2019-02-25T06:36:34.267Z,90.15
2019-02-25T06:37:41.124Z,95.20
2019-02-25T06:38:47.165Z,90.22
2019-02-25T06:39:54.744Z,89.97
2019-02-25T06:41:01.217Z,87.12
2019-02-25T06:42:08.455Z,84.37
2019-02-25T06:43:15.593Z,88.25
2019-02-25T06:44:21.993Z,81.40
2019-02-25T06:45:35.318Z,86.70
2019-02-25T06:46:43.395Z,85.40
2019-02-25T06:47:50.403Z,84.65
2019-02-25T06:48:58.000Z,85.95
2019-02-25T06:50:05.607Z,94.83
2019-02-25T06:51:14.238Z,98.52
2019-02-25T06:52:20.519Z,92.00
2019-02-25T06:53:30.090Z,96.30
2019-02-25T06:54:36.782Z,86.05
2019-02-25T06:55:44.392Z,87.88
2019-02-25T06:56:50.882Z,85.50
2019-02-25T06:57:57.522Z,88.62
2019-02-25T06:59:04.678Z,91.55
2019-02-25T07:00:21.460Z,93.67
2019-02-25T07:01:28.588Z,88.47
2019-02-25T07:02:35.410Z,86.87
2019-02-25T07:03:44.264Z,86.20
2019-02-25T07:04:59.202Z,87.97
2019-02-25T07:06:08.667Z,87.20
2019-02-25T07:07:19.535Z,86.85
2019-02-25T07:08:26.181Z,84.85
2019-02-25T07:09:50.625Z,84.62
2019-02-25T07:12:23.414Z,89.92
2019-02-25T07:13:34.874Z,81.25
2019-02-25T07:14:43.794Z,90.15
2019-02-25T07:15:59.522Z,83.85
2019-02-25T07:17:13.806Z,84.07
2019-02-25T07:18:36.304Z,93.27
2019-02-25T07:19:47.822Z,89.50
2019-02-25T07:20:55.611Z,83.40
2019-02-25T07:22:13.761Z,86.35
2019-02-25T07:23:33.609Z,89.92
2019-02-25T07:24:55.070Z,77.50
2019-02-25T07:26:03.312Z,123.90
2019-02-25T07:27:11.935Z,75.72
2019-02-25T07:28:36.705Z,85.62
2019-02-25T07:30:01.088Z,83.37
2019-02-25T07:31:25.203Z,83.22
2019-02-25T07:32:36.922Z,102.35
2019-02-25T07:33:46.932Z,70.90
2019-02-25T07:34:58.521Z,86.17
2019-02-25T07:36:09.397Z,79.25
2019-02-25T07:37:34.122Z,77.08
2019-02-25T07:38:51.949Z,75.52
2019-02-25T07:40:13.972Z,85.67
2019-02-25T07:41:23.783Z,82.35
2019-02-25T07:42:51.318Z,86.40
2019-02-25T07:44:09.390Z,99.62
2019-02-25T07:45:34.563Z,90.47
2019-02-25T07:46:48.940Z,100.00
2019-02-25T07:47:57.113Z,113.37
2019-02-25T07:49:11.982Z,106.07
2019-02-25T07:50:27.848Z,92.90
2019-02-25T07:51:39.408Z,93.45
2019-02-25T07:52:49.982Z,98.75
2019-02-25T07:53:58.817Z,124.53
2019-02-25T07:55:14.969Z,100.27
2019-02-25T07:56:28.544Z,89.40
2019-02-25T07:57:44.835Z,86.40
2019-02-25T07:59:16.436Z,92.75
2019-02-25T08:00:51.169Z,137.52
2019-02-25T08:02:18.179Z,169.17
2019-02-25T08:03:31.160Z,153.40
2019-02-25T08:04:43.242Z,159.80
2019-02-25T08:06:02.964Z,159.65
2019-02-25T08:07:17.271Z,116.10
2019-02-25T08:08:33.519Z,192.62
2019-02-25T08:09:43.237Z,96.57
2019-02-25T08:10:51.838Z,110.42
2019-02-25T08:11:59.679Z,88.92
2019-02-25T08:13:07.840Z,71.70
2019-02-25T08:14:27.110Z,85.15
2019-02-25T08:15:34.873Z,79.95
2019-02-25T08:16:50.430Z,83.50
2019-02-25T08:18:14.434Z,89.67
2019-02-25T08:19:22.826Z,129.35
2019-02-25T08:20:32.030Z,157.00
2019-02-25T08:21:45.590Z,88.17
2019-02-25T08:23:09.726Z,319.40
2019-02-25T08:24:17.228Z,266.70
2019-02-25T08:25:30.336Z,240.45
2019-02-25T08:26:40.852Z,269.05
2019-02-25T08:27:50.980Z,267.85
2019-02-25T08:29:05.302Z,239.75
2019-02-25T08:30:27.020Z,122.98
2019-02-25T08:31:44.793Z,195.62
2019-02-25T08:32:56.059Z,126.60
2019-02-25T08:34:18.288Z,154.03
2019-02-25T08:35:45.039Z,152.38
2019-02-25T08:37:12.333Z,100.90
2019-02-25T08:38:22.980Z,206.43
2019-02-25T08:39:32.053Z,135.05
2019-02-25T08:40:50.553Z,103.78
2019-02-25T08:41:58.580Z,195.22
2019-02-25T08:43:12.653Z,163.35
2019-02-25T08:44:32.639Z,124.95
2019-02-25T08:45:41.382Z,124.30
2019-02-25T08:46:52.293Z,108.27
2019-02-25T08:48:02.778Z,107.37
2019-02-25T08:49:13.024Z,114.42
2019-02-25T08:50:18.840Z,83.62
2019-02-25T08:51:24.897Z,92.85
2019-02-25T08:52:30.512Z,97.92
2019-02-25T08:53:37.027Z,93.30
2019-02-25T08:54:44.273Z,86.72
2019-02-25T08:55:50.761Z,100.97
2019-02-25T08:56:56.574Z,108.37
2019-02-25T08:58:02.613Z,91.85
2019-02-25T08:59:08.673Z,92.02
2019-02-25T09:00:15.814Z,94.20
2019-02-25T09:01:22.248Z,92.10
2019-02-25T09:02:29.172Z,90.62
2019-02-25T09:03:36.013Z,98.55
2019-02-25T09:04:42.073Z,93.92
2019-02-25T09:05:48.213Z,97.42
2019-02-25T09:06:54.895Z,89.62
2019-02-25T09:08:01.363Z,92.22
2019-02-25T09:09:07.813Z,86.02
2019-02-25T09:10:15.720Z,100.25
2019-02-25T09:11:22.194Z,90.22
2019-02-25T09:12:30.033Z,96.10
2019-02-25T09:13:36.476Z,88.70
2019-02-25T09:14:42.653Z,94.15
2019-02-25T09:15:48.894Z,90.38
2019-02-25T09:16:55.373Z,91.47
2019-02-25T09:17:59.808Z,84.45
2019-02-25T09:19:05.640Z,85.45
2019-02-25T09:20:11.413Z,89.90
2019-02-25T09:21:17.182Z,90.28
2019-02-25T09:22:22.880Z,88.70
2019-02-25T09:23:28.574Z,92.50
2019-02-25T09:24:34.954Z,96.15
2019-02-25T09:25:42.254Z,88.97
2019-02-25T09:26:48.213Z,108.97
2019-02-25T09:27:54.516Z,103.27
2019-02-25T09:29:00.530Z,119.72
2019-02-25T09:30:16.129Z,97.70
2019-02-25T09:31:23.000Z,100.67
2019-02-25T09:32:30.530Z,93.17
2019-02-25T09:33:36.676Z,99.80
2019-02-25T09:34:43.232Z,106.05
2019-02-25T09:35:49.552Z,100.70
2019-02-25T09:36:55.534Z,80.45
2019-02-25T09:38:01.819Z,83.37
2019-02-25T09:39:12.073Z,83.03
2019-02-25T09:40:20.253Z,77.05
2019-02-25T09:41:29.997Z,81.60
2019-02-25T09:42:34.412Z,88.47
2019-02-25T09:43:41.863Z,93.70
2019-02-25T09:44:48.375Z,92.72
2019-02-25T09:45:55.022Z,89.28
2019-02-25T09:47:00.894Z,92.78
2019-02-25T09:48:06.933Z,99.37
2019-02-25T09:49:12.888Z,99.90
2019-02-25T09:50:21.149Z,81.28
2019-02-25T09:51:26.922Z,80.70
2019-02-25T09:52:32.893Z,89.50
2019-02-25T09:53:38.913Z,83.05
2019-02-25T09:54:44.853Z,83.70
2019-02-25T09:55:50.793Z,86.72
2019-02-25T09:56:56.681Z,88.97
2019-02-25T09:58:02.942Z,97.90
2019-02-25T09:59:09.120Z,82.53
2019-02-25T10:00:18.935Z,84.42
2019-02-25T10:01:26.581Z,91.28
2019-02-25T10:02:32.733Z,82.50
2019-02-25T10:03:38.773Z,86.30
2019-02-25T10:04:45.520Z,85.47
2019-02-25T10:05:51.476Z,79.42
2019-02-25T10:07:02.274Z,85.77
2019-02-25T10:08:06.014Z,74.87
2019-02-25T10:09:12.698Z,78.85
2019-02-25T10:10:20.301Z,83.70
2019-02-25T10:11:26.973Z,78.10
2019-02-25T10:12:32.773Z,82.05
2019-02-25T10:13:40.033Z,79.22
2019-02-25T10:14:46.514Z,82.35
2019-02-25T10:15:52.454Z,80.07
2019-02-25T10:16:58.376Z,89.92
2019-02-25T10:18:04.273Z,88.65
2019-02-25T10:19:10.233Z,92.47
2019-02-25T10:20:16.070Z,96.80
2019-02-25T10:21:21.793Z,89.62
2019-02-25T10:22:27.700Z,85.22
2019-02-25T10:23:34.213Z,91.42
2019-02-25T10:24:40.034Z,107.03
2019-02-25T10:25:46.453Z,102.47
2019-02-25T10:26:52.921Z,82.37
2019-02-25T10:27:58.574Z,80.40
2019-02-25T10:29:04.833Z,86.53
2019-02-25T10:30:17.675Z,84.70
2019-02-25T10:31:23.460Z,92.05
2019-02-25T10:32:30.238Z,93.67
2019-02-25T10:33:36.414Z,89.60
2019-02-25T10:34:42.494Z,90.35
2019-02-25T10:35:48.654Z,81.60
2019-02-25T10:36:54.513Z,81.65
2019-02-25T10:38:03.034Z,91.85
2019-02-25T10:39:13.049Z,84.45
2019-02-25T10:40:23.982Z,88.10
2019-02-25T10:41:27.919Z,79.80
2019-02-25T10:42:35.622Z,81.28
2019-02-25T10:43:42.121Z,77.93
2019-02-25T10:44:50.201Z,76.42
2019-02-25T10:45:57.133Z,78.63
2019-02-25T10:47:04.441Z,79.70
2019-02-25T10:48:10.393Z,74.87
2019-02-25T10:49:16.135Z,80.87
2019-02-25T10:50:21.999Z,78.13
2019-02-25T10:51:27.745Z,80.37
2019-02-25T10:52:33.453Z,80.73
2019-02-25T10:53:39.779Z,82.03
2019-02-25T10:54:45.479Z,80.00
2019-02-25T10:56:05.042Z,89.77
2019-02-25T10:57:10.974Z,86.00
2019-02-25T10:58:17.474Z,79.50
2019-02-25T10:59:23.601Z,87.73
2019-02-25T11:00:29.414Z,75.63
2019-02-25T11:01:37.541Z,76.53
2019-02-25T11:02:44.452Z,77.50
2019-02-25T11:03:52.640Z,80.97
2019-02-25T11:05:00.054Z,85.80
2019-02-25T11:06:06.193Z,87.47
2019-02-25T11:07:13.053Z,80.43
2019-02-25T11:08:20.580Z,81.10
2019-02-25T11:09:37.874Z,84.37
2019-02-25T11:10:50.781Z,81.57
2019-02-25T11:12:00.058Z,79.17
2019-02-25T11:13:06.155Z,91.73
2019-02-25T11:14:12.441Z,109.50
2019-02-25T11:15:18.479Z,106.23
2019-02-25T11:16:25.135Z,105.73
2019-02-25T11:17:31.974Z,86.75
2019-02-25T11:18:37.834Z,88.47
2019-02-25T11:19:43.653Z,75.43
2019-02-25T11:20:50.440Z,75.27
2019-02-25T11:21:56.181Z,76.90
2019-02-25T11:23:02.134Z,75.17
2019-02-25T11:24:07.914Z,76.23
2019-02-25T11:25:15.577Z,74.53
2019-02-25T11:26:23.774Z,71.50
2019-02-25T11:27:31.331Z,78.87
2019-02-25T11:28:39.215Z,71.27
2019-02-25T11:29:46.229Z,75.90
2019-02-25T11:30:53.773Z,73.00
2019-02-25T11:32:00.560Z,75.07
2019-02-25T11:33:06.760Z,86.60
2019-02-25T11:34:13.254Z,85.57
2019-02-25T11:35:20.021Z,77.73
2019-02-25T11:36:26.821Z,77.93
2019-02-25T11:37:32.715Z,70.37
2019-02-25T11:38:38.483Z,70.40
2019-02-25T11:39:44.761Z,73.53
2019-02-25T11:40:51.021Z,70.10
2019-02-25T11:41:57.941Z,74.50
2019-02-25T11:43:03.794Z,65.67
2019-02-25T11:44:09.527Z,70.73
2019-02-25T11:45:22.439Z,69.27
2019-02-25T11:46:28.274Z,70.33
2019-02-25T11:47:35.054Z,71.57
2019-02-25T11:48:41.633Z,81.50
2019-02-25T11:49:47.894Z,72.93
2019-02-25T11:50:53.571Z,77.53
2019-02-25T11:51:59.334Z,70.00
2019-02-25T11:53:05.674Z,63.93
2019-02-25T11:54:11.662Z,72.10
2019-02-25T11:55:17.994Z,65.47
2019-02-25T11:56:24.325Z,74.43
2019-02-25T11:57:30.322Z,71.20
2019-02-25T11:58:36.038Z,68.17
2019-02-25T11:59:42.083Z,70.27
2019-02-25T12:00:47.844Z,60.83
2019-02-25T12:01:53.882Z,65.67
2019-02-25T12:02:59.616Z,61.27
2019-02-25T12:04:05.774Z,65.13
2019-02-25T12:05:12.475Z,64.47
2019-02-25T12:06:19.413Z,64.90
2019-02-25T12:07:25.962Z,63.23
2019-02-25T12:08:32.336Z,63.17
2019-02-25T12:09:38.914Z,68.90
2019-02-25T12:10:45.155Z,64.30
2019-02-25T12:11:50.861Z,64.20
2019-02-25T12:12:56.715Z,66.47
2019-02-25T12:14:03.061Z,64.87
2019-02-25T12:15:27.562Z,67.03
2019-02-25T12:16:35.137Z,69.40
2019-02-25T12:17:40.874Z,69.80
2019-02-25T12:18:47.576Z,62.73
2019-02-25T12:19:54.115Z,78.77
2019-02-25T12:20:59.981Z,66.87
2019-02-25T12:22:05.795Z,63.57
2019-02-25T12:23:11.814Z,61.67
2019-02-25T12:24:17.529Z,79.60
2019-02-25T12:25:25.191Z,60.93
2019-02-25T12:26:30.901Z,65.73
2019-02-25T12:27:37.142Z,65.23
2019-02-25T12:28:43.742Z,70.20
2019-02-25T12:29:51.057Z,80.83
2019-02-25T12:30:56.936Z,71.10
2019-02-25T12:32:03.195Z,75.30
2019-02-25T12:33:10.834Z,66.47
2019-02-25T12:34:18.303Z,81.90
2019-02-25T12:35:23.980Z,74.97
2019-02-25T12:36:30.354Z,72.70
2019-02-25T12:37:37.261Z,64.97
2019-02-25T12:38:43.376Z,60.70
2019-02-25T12:39:49.401Z,61.40
2019-02-25T12:40:55.781Z,79.50
2019-02-25T12:42:01.705Z,78.20
2019-02-25T12:43:08.504Z,68.80
2019-02-25T12:44:14.334Z,58.83
2019-02-25T12:45:22.255Z,61.70
2019-02-25T12:46:28.673Z,69.37
2019-02-25T12:47:34.634Z,66.80
2019-02-25T12:48:41.186Z,75.13
2019-02-25T12:49:47.222Z,82.80
2019-02-25T12:50:53.055Z,74.33
2019-02-25T12:51:58.921Z,64.83
2019-02-25T12:53:04.962Z,79.83
2019-02-25T12:54:12.035Z,71.77
2019-02-25T12:55:19.543Z,60.30
2019-02-25T12:56:25.373Z,64.70
2019-02-25T12:57:31.854Z,58.47
2019-02-25T12:58:37.874Z,103.53
2019-02-25T12:59:43.711Z,122.47
2019-02-25T13:00:49.560Z,76.17
2019-02-25T13:01:55.961Z,55.87
2019-02-25T13:03:01.741Z,53.70
2019-02-25T13:04:08.312Z,57.23
2019-02-25T13:05:24.554Z,53.37
2019-02-25T13:06:30.334Z,58.30
2019-02-25T13:07:36.082Z,56.43
2019-02-25T13:08:41.802Z,60.60
2019-02-25T13:09:47.662Z,56.77
2019-02-25T13:10:53.410Z,61.33
2019-02-25T13:11:59.650Z,60.27
2019-02-25T13:13:05.621Z,62.27
2019-02-25T13:14:12.641Z,58.60
2019-02-25T13:15:24.258Z,55.17
2019-02-25T13:16:30.935Z,55.70
2019-02-25T13:17:37.181Z,60.63
2019-02-25T13:18:44.615Z,75.03
2019-02-25T13:19:51.502Z,49.73
2019-02-25T13:20:57.680Z,55.40
2019-02-25T13:22:03.475Z,49.87
2019-02-25T13:23:09.238Z,56.37
2019-02-25T13:24:15.494Z,54.47
2019-02-25T13:25:34.222Z,68.87
2019-02-25T13:26:40.345Z,68.33
2019-02-25T13:27:46.454Z,47.97
2019-02-25T13:28:52.375Z,55.93
2019-02-25T13:29:58.862Z,71.73
2019-02-25T13:31:06.405Z,62.83
2019-02-25T13:32:13.035Z,51.70
2019-02-25T13:33:20.376Z,50.10
2019-02-25T13:34:27.623Z,52.73
2019-02-25T13:35:33.375Z,75.00
2019-02-25T13:36:39.322Z,111.57
2019-02-25T13:37:46.916Z,50.60
2019-02-25T13:38:52.854Z,50.60
2019-02-25T13:39:59.214Z,56.33
2019-02-25T13:41:05.122Z,48.10
2019-02-25T13:42:11.234Z,78.10
2019-02-25T13:43:17.784Z,66.40
2019-02-25T13:44:25.065Z,63.27
2019-02-25T13:45:32.662Z,62.97
2019-02-25T13:46:38.994Z,73.33
2019-02-25T13:47:45.445Z,61.17
2019-02-25T13:48:51.601Z,89.70
2019-02-25T13:49:58.276Z,73.87
2019-02-25T13:51:04.830Z,56.33
2019-02-25T13:52:12.191Z,77.43
2019-02-25T13:53:18.322Z,61.13
2019-02-25T13:54:24.195Z,98.67
2019-02-25T13:55:30.142Z,61.53
2019-02-25T13:56:36.089Z,81.97
2019-02-25T13:57:42.816Z,74.27
2019-02-25T13:58:48.897Z,68.60
2019-02-25T13:59:54.642Z,65.20
2019-02-25T14:01:00.575Z,68.67
2019-02-25T14:02:09.302Z,56.27
2019-02-25T14:03:15.302Z,47.30
2019-02-25T14:04:22.835Z,49.43
2019-02-25T14:05:29.094Z,49.60
2019-02-25T14:06:35.223Z,51.03
2019-02-25T14:07:43.195Z,60.33
2019-02-25T14:08:49.785Z,51.00
2019-02-25T14:09:56.375Z,58.83
2019-02-25T14:11:02.334Z,44.60
2019-02-25T14:12:08.338Z,46.57
2019-02-25T14:13:15.982Z,42.10
2019-02-25T14:14:22.235Z,42.60
2019-02-25T14:15:28.222Z,39.90
2019-02-25T14:16:34.743Z,52.70
2019-02-25T14:17:41.335Z,44.70
2019-02-25T14:18:47.006Z,48.67
2019-02-25T14:19:53.797Z,52.20
2019-02-25T14:21:01.724Z,50.87
2019-02-25T14:22:07.483Z,54.63
2019-02-25T14:23:16.069Z,39.90
2019-02-25T14:24:21.399Z,44.77
2019-02-25T14:25:33.263Z,40.47
2019-02-25T14:26:39.282Z,39.10
2019-02-25T14:27:45.466Z,46.87
2019-02-25T14:28:51.737Z,51.00
2019-02-25T14:29:57.886Z,65.33
2019-02-25T14:31:03.717Z,51.57
2019-02-25T14:32:10.926Z,37.80